createdAt,value
2018-08-22T00:01:27.441Z,43.80
2018-08-22T00:03:56.216Z,43.90
2018-08-22T00:06:25.046Z,43.90
2018-08-22T00:08:53.852Z,43.80
2018-08-22T00:11:22.686Z,44.10
2018-08-22T00:13:51.507Z,44.10
2018-08-22T00:16:20.321Z,44.00
2018-08-22T00:18:49.171Z,44.10
2018-08-22T00:21:18.468Z,44.10
2018-08-22T00:23:47.284Z,44.30
2018-08-22T00:26:16.084Z,44.30
2018-08-22T00:28:44.887Z,44.30
2018-08-22T00:31:14.113Z,44.50
2018-08-22T00:33:42.934Z,44.50
2018-08-22T00:36:11.738Z,44.50
2018-08-22T00:38:40.602Z,44.50
2018-08-22T00:41:09.452Z,44.90
2018-08-22T00:43:38.530Z,44.70
2018-08-22T00:46:07.317Z,44.70
2018-08-22T00:48:36.102Z,44.70
2018-08-22T00:51:04.897Z,44.90
2018-08-22T00:53:33.690Z,45.00
2018-08-22T00:56:02.539Z,45.00
2018-08-22T00:58:31.351Z,45.00
2018-08-22T01:01:00.141Z,45.00
2018-08-22T01:03:28.928Z,45.60
2018-08-22T01:05:58.205Z,45.10
2018-08-22T01:08:27.013Z,45.20
2018-08-22T01:10:55.817Z,45.20
2018-08-22T01:13:24.636Z,45.20
2018-08-22T01:15:54.412Z,45.30
2018-08-22T01:18:23.211Z,45.40
2018-08-22T01:20:52.333Z,45.40
2018-08-22T01:23:21.155Z,45.50
2018-08-22T01:25:51.317Z,45.50
2018-08-22T01:28:20.481Z,45.50
2018-08-22T01:30:49.293Z,45.60
2018-08-22T01:33:18.581Z,45.70
2018-08-22T01:35:47.398Z,45.70
2018-08-22T01:38:16.198Z,45.70
2018-08-22T01:40:45.006Z,45.80
2018-08-22T01:43:13.826Z,45.90
2018-08-22T01:45:42.640Z,46.00
2018-08-22T01:48:11.434Z,46.00
2018-08-22T01:50:40.826Z,46.10
2018-08-22T01:53:09.625Z,46.20
2018-08-22T01:55:38.459Z,46.60
2018-08-22T01:58:07.961Z,46.30
2018-08-22T02:00:37.364Z,46.30
2018-08-22T02:03:06.193Z,46.40
2018-08-22T02:05:35.010Z,46.40
2018-08-22T02:08:03.801Z,46.50
2018-08-22T02:10:32.622Z,46.60
2018-08-22T02:13:01.618Z,46.70
2018-08-22T02:15:30.441Z,46.70
2018-08-22T02:17:59.252Z,46.80
2018-08-22T02:20:28.057Z,46.80
2018-08-22T02:22:57.002Z,46.90
2018-08-22T02:25:26.146Z,47.00
2018-08-22T02:27:54.995Z,47.00
2018-08-22T02:30:23.859Z,47.10
2018-08-22T02:32:52.667Z,47.10
2018-08-22T02:35:22.033Z,47.20
2018-08-22T02:37:50.862Z,47.30
2018-08-22T02:40:20.134Z,47.40
2018-08-22T02:42:49.078Z,47.50
2018-08-22T02:45:17.863Z,47.50
2018-08-22T02:47:46.734Z,47.60
2018-08-22T02:50:16.378Z,47.60
2018-08-22T02:52:45.168Z,47.60
2018-08-22T02:55:13.981Z,47.60
2018-08-22T02:57:43.217Z,47.70
2018-08-22T03:00:12.530Z,47.90
2018-08-22T03:02:41.326Z,47.90
2018-08-22T03:05:10.375Z,47.50
2018-08-22T03:07:39.177Z,48.00
2018-08-22T03:10:09.686Z,48.00
2018-08-22T03:12:38.532Z,48.10
2018-08-22T03:15:08.923Z,48.20
2018-08-22T03:17:37.722Z,48.30
2018-08-22T03:24:59.387Z,46.90
2018-08-22T03:27:28.231Z,48.30
2018-08-22T03:29:57.042Z,48.50
2018-08-22T03:32:25.852Z,48.60
2018-08-22T03:34:54.638Z,48.80
2018-08-22T03:37:23.960Z,48.80
2018-08-22T03:39:52.792Z,48.90
2018-08-22T03:42:21.606Z,49.00
2018-08-22T03:44:50.423Z,49.00
2018-08-22T03:47:20.855Z,49.00
2018-08-22T03:49:49.704Z,49.50
2018-08-22T03:52:18.716Z,49.20
2018-08-22T03:54:48.415Z,49.30
2018-08-22T03:57:17.251Z,49.40
2018-08-22T03:59:46.050Z,49.40
2018-08-22T04:02:15.169Z,49.50
2018-08-22T04:04:43.987Z,49.50
2018-08-22T04:07:12.799Z,49.50
2018-08-22T04:09:42.510Z,49.60
2018-08-22T04:12:11.302Z,49.60
2018-08-22T04:14:40.156Z,49.60
2018-08-22T04:17:08.990Z,49.60
2018-08-22T04:19:38.811Z,49.60
2018-08-22T04:22:07.606Z,49.70
2018-08-22T04:24:36.431Z,50.30
2018-08-22T04:27:05.869Z,49.80
2018-08-22T04:29:34.693Z,49.80
2018-08-22T04:32:03.946Z,49.80
2018-08-22T04:34:32.755Z,49.80
2018-08-22T04:37:01.583Z,49.90
2018-08-22T04:39:30.844Z,49.90
2018-08-22T04:41:59.633Z,49.90
2018-08-22T04:44:28.434Z,49.80
2018-08-22T04:46:57.582Z,49.90
2018-08-22T04:49:26.403Z,50.00
2018-08-22T04:51:55.206Z,49.90
2018-08-22T04:54:24.291Z,49.90
2018-08-22T04:56:53.090Z,49.80
2018-08-22T04:59:21.918Z,49.80
2018-08-22T05:01:51.167Z,50.00
2018-08-22T05:04:20.007Z,49.90
2018-08-22T05:06:48.908Z,49.90
2018-08-22T05:09:17.731Z,49.90
2018-08-22T05:11:46.535Z,49.90
2018-08-22T05:14:16.742Z,50.00
2018-08-22T05:16:46.846Z,50.00
2018-08-22T05:19:15.719Z,50.40
2018-08-22T05:21:44.550Z,50.00
2018-08-22T05:24:13.862Z,50.00
2018-08-22T05:26:42.735Z,50.00
2018-08-22T05:29:11.908Z,50.00
2018-08-22T05:31:40.742Z,49.90
2018-08-22T05:34:10.174Z,49.90
2018-08-22T05:36:39.356Z,49.90
2018-08-22T05:39:11.809Z,49.90
2018-08-22T05:41:42.614Z,49.90
2018-08-22T05:44:11.450Z,49.80
2018-08-22T05:46:40.287Z,49.60
2018-08-22T05:49:09.129Z,49.50
2018-08-22T05:51:37.917Z,49.40
2018-08-22T05:54:06.823Z,49.20
2018-08-22T05:56:35.635Z,49.10
2018-08-22T05:59:04.483Z,49.10
2018-08-22T06:01:34.005Z,49.00
2018-08-22T06:04:02.938Z,48.80
2018-08-22T06:06:31.810Z,48.80
2018-08-22T06:09:00.658Z,48.60
2018-08-22T06:11:29.493Z,48.50
2018-08-22T06:13:58.834Z,48.40
2018-08-22T06:16:27.699Z,48.40
2018-08-22T06:18:56.570Z,48.90
2018-08-22T06:21:25.392Z,48.40
2018-08-22T06:23:54.590Z,48.20
2018-08-22T06:26:23.394Z,48.10
2018-08-22T06:28:52.250Z,47.90
2018-08-22T06:31:21.082Z,48.00
2018-08-22T06:33:50.536Z,47.70
2018-08-22T06:36:19.719Z,47.70
2018-08-22T06:38:48.579Z,47.50
2018-08-22T06:41:18.114Z,47.40
2018-08-22T06:43:47.327Z,47.30
2018-08-22T06:46:17.683Z,47.20
2018-08-22T06:48:46.546Z,47.00
2018-08-22T06:51:16.288Z,47.20
2018-08-22T06:53:46.339Z,47.00
2018-08-22T06:56:16.081Z,46.90
2018-08-22T06:58:44.939Z,46.70
2018-08-22T07:01:13.786Z,46.70
2018-08-22T07:03:42.586Z,46.50
2018-08-22T07:06:11.394Z,46.50
2018-08-22T07:08:41.613Z,46.30
2018-08-22T07:11:11.345Z,46.20
2018-08-22T07:13:40.199Z,46.00
2018-08-22T07:16:09.031Z,45.60
2018-08-22T07:18:38.242Z,45.70
2018-08-22T07:21:07.054Z,45.50
2018-08-22T07:23:35.966Z,45.50
2018-08-22T07:26:05.684Z,45.40
2018-08-22T07:28:34.932Z,45.10
2018-08-22T07:31:04.277Z,45.10
2018-08-22T07:33:33.070Z,45.00
2018-08-22T07:36:01.897Z,44.80
2018-08-22T07:38:30.712Z,44.60
2018-08-22T07:40:59.653Z,44.50
2018-08-22T07:43:28.509Z,44.70
2018-08-22T07:45:58.958Z,44.40
2018-08-22T07:48:27.832Z,44.10
2018-08-22T07:50:56.653Z,44.50
2018-08-22T07:53:25.945Z,44.00
2018-08-22T07:55:54.678Z,43.80
2018-08-22T07:58:23.491Z,43.50
2018-08-22T08:00:52.320Z,43.80
2018-08-22T08:03:21.287Z,43.50
2018-08-22T08:05:50.095Z,43.30
2018-08-22T08:08:18.926Z,43.20
2018-08-22T08:10:47.815Z,42.40
2018-08-22T08:13:22.423Z,42.20
2018-08-22T08:15:51.254Z,42.10
2018-08-22T08:18:20.089Z,42.00
2018-08-22T08:20:48.967Z,41.60
2018-08-22T08:23:18.755Z,41.60
2018-08-22T08:25:47.914Z,41.10
2018-08-22T08:28:16.735Z,40.90
2018-08-22T08:30:45.777Z,40.50
2018-08-22T08:33:14.593Z,40.30
2018-08-22T08:35:43.547Z,40.30
2018-08-22T08:38:12.505Z,40.30
2018-08-22T08:40:41.615Z,40.30
2018-08-22T08:43:10.443Z,40.00
2018-08-22T08:45:39.927Z,39.50
2018-08-22T08:48:09.034Z,39.60
2018-08-22T08:50:37.863Z,39.40
2018-08-22T08:53:06.731Z,39.20
2018-08-22T08:55:39.099Z,38.90
2018-08-22T08:58:07.931Z,38.70
2018-08-22T09:00:36.759Z,38.40
2018-08-22T09:03:05.606Z,38.50
2018-08-22T09:05:34.466Z,38.50
2018-08-22T09:08:03.279Z,38.30
2018-08-22T09:10:32.127Z,38.10
2018-08-22T09:13:00.936Z,38.10
2018-08-22T09:15:29.761Z,37.80
2018-08-22T09:17:58.970Z,37.80
2018-08-22T09:20:27.791Z,38.20
2018-08-22T09:22:56.656Z,37.60
2018-08-22T09:25:25.506Z,37.20
2018-08-22T09:27:54.330Z,37.00
2018-08-22T09:30:23.449Z,37.10
2018-08-22T09:32:52.303Z,37.10
2018-08-22T09:35:21.172Z,37.20
2018-08-22T09:37:49.997Z,36.70
2018-08-22T09:40:19.019Z,36.80
2018-08-22T09:42:47.847Z,36.40
2018-08-22T09:45:16.660Z,36.10
2018-08-22T09:47:45.541Z,35.80
2018-08-22T09:50:14.945Z,36.00
2018-08-22T09:52:43.771Z,35.90
2018-08-22T09:55:13.145Z,35.80
2018-08-22T09:57:41.974Z,35.80
2018-08-22T10:00:16.508Z,35.70
2018-08-22T10:02:45.367Z,35.50
2018-08-22T10:05:14.221Z,35.30
2018-08-22T10:07:43.578Z,35.70
2018-08-22T10:10:12.520Z,35.40
2018-08-22T10:12:41.301Z,35.80
2018-08-22T10:15:10.155Z,35.60
2018-08-22T10:17:38.950Z,35.30
2018-08-22T10:20:08.918Z,35.40
2018-08-22T10:22:37.847Z,35.50
2018-08-22T10:25:07.605Z,35.20
2018-08-22T10:27:36.441Z,34.90
2018-08-22T10:30:05.547Z,34.90
2018-08-22T10:32:34.357Z,35.30
2018-08-22T10:35:03.170Z,34.80
2018-08-22T10:37:32.016Z,34.60
2018-08-22T10:40:01.120Z,34.50
2018-08-22T10:42:29.943Z,34.50
2018-08-22T10:44:58.979Z,34.00
2018-08-22T10:47:27.795Z,34.50
2018-08-22T10:49:56.591Z,33.90
2018-08-22T10:52:25.965Z,34.50
2018-08-22T10:54:54.781Z,34.10
2018-08-22T10:57:23.607Z,34.20
2018-08-22T10:59:52.446Z,34.10
2018-08-22T11:02:21.299Z,34.10
2018-08-22T11:04:50.721Z,33.70
2018-08-22T11:07:20.735Z,33.60
2018-08-22T11:09:49.596Z,33.50
2018-08-22T11:12:19.044Z,33.30
2018-08-22T11:14:48.567Z,33.20
2018-08-22T11:17:17.391Z,33.20
2018-08-22T11:19:46.222Z,33.20
2018-08-22T11:22:32.804Z,33.00
2018-08-22T11:25:19.295Z,33.00
2018-08-22T11:28:05.414Z,33.00
2018-08-22T11:30:51.639Z,32.70
2018-08-22T11:33:37.730Z,32.20
2018-08-22T11:36:05.290Z,32.20
2018-08-22T11:38:34.198Z,32.70
2018-08-22T11:41:03.438Z,32.80
2018-08-22T11:43:32.293Z,32.20
2018-08-22T11:46:01.126Z,32.30
2018-08-22T11:48:30.790Z,32.30
2018-08-22T11:50:59.694Z,32.20
2018-08-22T11:53:28.952Z,32.20
2018-08-22T11:55:57.837Z,31.90
2018-08-22T11:58:26.642Z,31.90
2018-08-22T12:00:55.494Z,31.70
2018-08-22T12:03:26.168Z,30.80
2018-08-22T12:05:54.987Z,30.60
2018-08-22T12:08:23.797Z,30.60
2018-08-22T12:10:52.634Z,30.50
2018-08-22T12:13:22.340Z,30.60
2018-08-22T12:15:51.190Z,30.50
2018-08-22T12:18:20.018Z,30.80
2018-08-22T12:20:48.875Z,30.50
2018-08-22T12:23:18.631Z,31.20
2018-08-22T12:25:48.351Z,30.70
2018-08-22T12:28:17.468Z,30.70
2018-08-22T12:30:46.296Z,30.70
2018-08-22T12:33:15.125Z,30.70
2018-08-22T12:35:43.949Z,30.80
2018-08-22T12:38:12.754Z,30.30
2018-08-22T12:40:41.598Z,30.10
2018-08-22T12:43:10.431Z,30.30
2018-08-22T12:45:39.251Z,30.20
2018-08-22T12:48:08.417Z,30.50
2018-08-22T12:50:37.242Z,30.00
2018-08-22T12:53:06.574Z,30.10
2018-08-22T12:55:35.837Z,29.90
2018-08-22T12:58:04.647Z,29.90
2018-08-22T13:00:33.479Z,29.70
2018-08-22T13:03:02.283Z,29.60
2018-08-22T13:05:31.131Z,29.70
2018-08-22T13:07:59.960Z,29.80
2018-08-22T13:10:29.156Z,29.60
2018-08-22T13:12:58.047Z,29.50
2018-08-22T13:15:26.875Z,29.50
2018-08-22T13:17:55.661Z,29.40
2018-08-22T13:20:24.508Z,29.30
2018-08-22T13:22:53.357Z,29.40
2018-08-22T13:25:22.169Z,29.40
2018-08-22T13:27:50.986Z,29.20
2018-08-22T13:30:19.834Z,29.30
2018-08-22T13:32:49.286Z,29.20
2018-08-22T13:35:18.135Z,29.10
2018-08-22T13:37:46.984Z,29.20
2018-08-22T13:40:15.877Z,29.30
2018-08-22T13:42:44.667Z,29.30
2018-08-22T13:45:14.026Z,29.30
2018-08-22T13:47:42.855Z,29.20
2018-08-22T13:50:11.667Z,29.20
2018-08-22T13:52:47.740Z,29.20
2018-08-22T13:55:16.543Z,29.30
2018-08-22T13:57:45.718Z,29.40
2018-08-22T14:00:14.574Z,29.40
2018-08-22T14:02:43.482Z,29.40
2018-08-22T14:05:12.327Z,29.20
2018-08-22T14:07:41.188Z,29.20
2018-08-22T14:10:10.018Z,29.30
2018-08-22T14:12:38.857Z,29.30
2018-08-22T14:15:09.202Z,29.30
2018-08-22T14:17:38.015Z,29.40
2018-08-22T14:20:08.947Z,29.50
2018-08-22T14:22:37.991Z,29.60
2018-08-22T14:29:59.832Z,29.50
2018-08-22T14:32:28.655Z,29.30
2018-08-22T14:34:57.707Z,29.20
2018-08-22T14:37:26.823Z,29.30
2018-08-22T14:39:55.653Z,29.10
2018-08-22T14:42:24.496Z,29.00
2018-08-22T14:44:53.483Z,29.10
2018-08-22T14:47:22.295Z,29.00
2018-08-22T14:49:57.792Z,29.20
2018-08-22T14:52:26.611Z,29.10
2018-08-22T14:54:55.420Z,29.10
2018-08-22T14:57:25.315Z,29.10
2018-08-22T14:59:54.621Z,29.00
2018-08-22T15:02:23.560Z,29.10
2018-08-22T15:04:52.347Z,28.80
2018-08-22T15:07:21.208Z,28.70
2018-08-22T15:09:50.059Z,28.80
2018-08-22T15:12:18.882Z,28.80
2018-08-22T15:14:47.714Z,28.80
2018-08-22T15:17:16.555Z,28.70
2018-08-22T15:19:46.196Z,28.70
2018-08-22T15:22:15.088Z,28.80
2018-08-22T15:24:43.899Z,28.80
2018-08-22T15:27:12.735Z,28.80
2018-08-22T15:29:41.557Z,28.70
2018-08-22T15:32:10.380Z,28.80
2018-08-22T15:34:57.193Z,28.80
2018-08-22T15:37:26.491Z,28.80
2018-08-22T15:39:55.319Z,28.70
2018-08-22T15:42:24.201Z,28.90
2018-08-22T15:44:53.083Z,28.90
2018-08-22T15:47:21.911Z,28.90
2018-08-22T15:49:50.720Z,28.80
2018-08-22T15:52:19.564Z,28.80
2018-08-22T15:55:06.248Z,28.70
2018-08-22T15:57:54.693Z,28.90
2018-08-22T16:00:36.823Z,29.30
2018-08-22T16:03:07.011Z,28.80
2018-08-22T16:05:36.832Z,28.90
2018-08-22T16:08:06.027Z,28.80
2018-08-22T16:10:34.816Z,28.80
2018-08-22T16:13:03.633Z,28.80
2018-08-22T16:15:37.064Z,29.20
2018-08-22T16:18:07.938Z,28.90
2018-08-22T16:20:45.313Z,29.10
2018-08-22T16:23:14.146Z,29.20
2018-08-22T16:25:45.310Z,29.20
2018-08-22T16:28:14.146Z,29.30
2018-08-22T16:30:43.380Z,29.20
2018-08-22T16:33:12.187Z,29.80
2018-08-22T16:35:41.122Z,29.40
2018-08-22T16:38:13.349Z,29.40
2018-08-22T16:40:43.423Z,29.40
2018-08-22T16:43:12.309Z,29.20
2018-08-22T16:45:46.679Z,29.40
2018-08-22T16:48:19.831Z,29.20
2018-08-22T16:50:50.065Z,29.30
2018-08-22T16:53:18.934Z,29.20
2018-08-22T16:55:48.677Z,29.30
2018-08-22T16:58:18.061Z,29.20
2018-08-22T17:00:47.691Z,29.30
2018-08-22T17:03:16.496Z,29.40
2018-08-22T17:05:45.359Z,29.60
2018-08-22T17:08:14.219Z,29.70
2018-08-22T17:10:59.604Z,29.70
2018-08-22T17:13:36.867Z,29.90
2018-08-22T17:16:05.975Z,29.60
2018-08-22T17:18:34.796Z,29.70
2018-08-22T17:21:03.648Z,30.00
2018-08-22T17:23:32.465Z,30.00
2018-08-22T17:26:01.306Z,29.90
2018-08-22T17:28:35.975Z,30.00
2018-08-22T17:31:04.804Z,30.00
2018-08-22T17:33:37.842Z,29.60
2018-08-22T17:36:08.018Z,30.00
2018-08-22T17:38:36.832Z,29.80
2018-08-22T17:41:05.771Z,29.90
2018-08-22T17:43:58.107Z,29.90
2018-08-22T17:46:29.674Z,30.00
2018-08-22T17:48:58.745Z,30.00
2018-08-22T17:51:27.754Z,30.00
2018-08-22T17:53:56.585Z,30.50
2018-08-22T17:56:26.549Z,30.10
2018-08-22T17:58:56.355Z,30.20
2018-08-22T18:01:29.439Z,30.40
2018-08-22T18:03:58.282Z,30.60
2018-08-22T18:06:27.198Z,30.60
2018-08-22T18:08:56.426Z,30.80
2018-08-22T18:11:26.052Z,30.80
2018-08-22T18:13:58.797Z,31.10
2018-08-22T18:16:27.531Z,31.10
2018-08-22T18:18:56.391Z,31.20
2018-08-22T18:21:33.323Z,31.30
2018-08-22T18:24:02.677Z,31.40
2018-08-22T18:26:31.591Z,31.40
2018-08-22T18:29:00.995Z,31.70
2018-08-22T18:31:30.971Z,31.80
2018-08-22T18:34:01.470Z,32.00
2018-08-22T18:36:31.431Z,32.10
2018-08-22T18:39:10.757Z,32.20
2018-08-22T18:41:40.067Z,32.40
2018-08-22T18:44:09.426Z,32.60
2018-08-22T18:46:38.665Z,33.40
2018-08-22T18:49:08.839Z,32.90
2018-08-22T18:51:37.675Z,33.60
2018-08-22T18:54:06.498Z,33.20
2018-08-22T18:56:35.315Z,33.40
2018-08-22T18:59:21.384Z,33.50
2018-08-22T19:01:50.638Z,33.70
2018-08-22T19:04:19.485Z,34.00
2018-08-22T19:06:48.941Z,34.00
2018-08-22T19:09:17.811Z,34.10
2018-08-22T19:11:47.255Z,34.20
2018-08-22T19:14:16.932Z,34.40
2018-08-22T19:16:45.782Z,34.60
2018-08-22T19:19:14.940Z,34.60
2018-08-22T19:21:43.747Z,34.60
2018-08-22T19:24:12.564Z,34.90
2018-08-22T19:26:41.385Z,35.00
2018-08-22T19:29:10.596Z,35.10
2018-08-22T19:31:45.004Z,35.20
2018-08-22T19:34:13.918Z,35.30
2018-08-22T19:36:44.142Z,35.50
2018-08-22T19:39:12.918Z,35.60
2018-08-22T19:41:41.787Z,35.80
2018-08-22T19:44:10.631Z,36.00
2018-08-22T19:46:42.757Z,36.10
2018-08-22T19:49:12.174Z,36.10
2018-08-22T19:51:40.986Z,36.20
2018-08-22T19:54:10.571Z,36.40
2018-08-22T19:56:39.400Z,36.60
2018-08-22T19:59:08.219Z,36.80
2018-08-22T20:01:37.968Z,36.70
2018-08-22T20:04:08.105Z,36.80
2018-08-22T20:06:36.932Z,37.00
2018-08-22T20:09:06.343Z,37.00
2018-08-22T20:11:35.674Z,36.90
2018-08-22T20:14:05.992Z,37.10
2018-08-22T20:16:34.808Z,37.20
2018-08-22T20:19:04.821Z,37.30
2018-08-22T20:21:38.101Z,37.50
2018-08-22T20:24:09.740Z,37.60
2018-08-22T20:26:41.096Z,37.70
2018-08-22T20:29:10.422Z,37.70
2018-08-22T20:31:39.210Z,38.00
2018-08-22T20:34:15.455Z,37.90
2018-08-22T20:36:48.230Z,38.00
2018-08-22T20:39:17.107Z,38.10
2018-08-22T20:41:45.979Z,38.00
2018-08-22T20:44:21.283Z,37.60
2018-08-22T20:46:50.226Z,37.90
2018-08-22T20:49:20.151Z,37.70
2018-08-22T20:51:49.380Z,37.80
2018-08-22T20:54:21.667Z,37.70
2018-08-22T20:57:03.554Z,38.20
2018-08-22T20:59:32.383Z,37.90
2018-08-22T21:02:05.687Z,37.80
2018-08-22T21:04:36.045Z,38.10
2018-08-22T21:07:05.342Z,38.10
2018-08-22T21:09:39.281Z,38.50
2018-08-22T21:12:08.115Z,38.20
2018-08-22T21:14:37.286Z,38.10
2018-08-22T21:17:06.515Z,38.20
2018-08-22T21:19:35.304Z,38.30
2018-08-22T21:22:14.638Z,38.30
2018-08-22T21:24:44.697Z,38.20
2018-08-22T21:27:14.221Z,38.30
2018-08-22T21:29:43.099Z,38.20
2018-08-22T21:32:11.895Z,38.40
2018-08-22T21:34:40.718Z,38.40
2018-08-22T21:37:21.410Z,38.50
2018-08-22T21:39:50.723Z,38.60
2018-08-22T21:42:25.010Z,38.50
2018-08-22T21:44:53.841Z,38.60
2018-08-22T21:47:23.309Z,38.50
2018-08-22T21:49:58.978Z,38.60
2018-08-22T21:52:39.267Z,38.60
2018-08-22T21:55:09.188Z,38.70
2018-08-22T21:57:37.995Z,38.70
2018-08-22T22:00:10.772Z,38.60
2018-08-22T22:02:44.616Z,38.70
2018-08-22T22:05:13.867Z,38.60
2018-08-22T22:07:42.908Z,38.50
2018-08-22T22:10:12.705Z,38.60
2018-08-22T22:12:42.247Z,38.70
2018-08-22T22:15:16.325Z,38.60
2018-08-22T22:17:45.651Z,38.70
2018-08-22T22:20:14.453Z,38.60
2018-08-22T22:22:43.243Z,38.60
2018-08-22T22:25:12.065Z,38.70
2018-08-22T22:27:40.909Z,38.60
2018-08-22T22:30:09.762Z,38.50
2018-08-22T22:32:39.010Z,38.70
2018-08-22T22:35:07.818Z,38.70
2018-08-22T22:37:36.611Z,38.70
2018-08-22T22:40:06.631Z,38.70
2018-08-22T22:42:37.079Z,38.80
2018-08-22T22:45:05.950Z,38.80
2018-08-22T22:47:35.229Z,38.80
2018-08-22T22:50:04.417Z,38.80
2018-08-22T22:52:39.258Z,38.90
2018-08-22T22:55:09.998Z,39.00
2018-08-22T22:57:40.046Z,39.00
2018-08-22T23:00:12.440Z,39.10
2018-08-22T23:02:41.474Z,39.20
2018-08-22T23:05:10.348Z,39.20
2018-08-22T23:07:40.793Z,39.30
2018-08-22T23:10:13.531Z,39.20
2018-08-22T23:12:45.271Z,39.40
2018-08-22T23:15:18.035Z,39.50
2018-08-22T23:17:49.998Z,39.50
2018-08-22T23:20:31.539Z,39.60
2018-08-22T23:23:00.395Z,39.70
2018-08-22T23:25:30.242Z,39.70
2018-08-22T23:27:59.394Z,39.60
2018-08-22T23:30:33.254Z,39.70
2018-08-22T23:33:02.058Z,39.70
2018-08-22T23:35:33.321Z,39.70
2018-08-22T23:38:08.483Z,39.90
2018-08-22T23:40:37.769Z,40.00
2018-08-22T23:43:06.611Z,40.00
2018-08-22T23:45:37.366Z,40.00
2018-08-22T23:48:06.813Z,40.20
2018-08-22T23:50:46.492Z,40.20
2018-08-22T23:53:15.335Z,40.30
2018-08-22T23:55:44.147Z,40.40
2018-08-22T23:58:13.004Z,40.40
